x

Virginia Beach 64 Nm East Of Virginia Beach, Va (44014) Wave Buoy

8:50 - Sat 1st Aug 2015 All times are EDT. -4 hours from GMT.

  • Sig Wave height 3.6ft
  • Swell Direction
  • Peak Period 7s
  • Average Period 5s
  • Wind
    13mph, 16mph gusts
  • Sea Temp 82°f
  • Aire Temp 80°f
  • Sea Pressure 1011.7mb
  • Virginia Beach 64 Nm East Of Virginia Beach, Va
  • Virginia Beach 64 Nm East Of Virginia Beach, Va

More Historic Weather Station data

Upgrade to MSW Pro to gain access to the past 30 days of data for over 8000 Wavebouys and Weather Stations around the globe.

Join Pro

Comparision Forecast

View Surf forecast
   
sáb 08/01 8:50 3.5ft 7s 5s 13 16 mph 1011.7mb 82f 80f
7:50 3.5ft 8s 5s 13 16 mph 1011.5mb 82f 80f
6:50 3.5ft 6s 5s 16 18 mph 1011.5mb 82f 80f
5:50 3.5ft 7s 5s 16 18 mph 1011.4mb 82f 80f
4:50 3.5ft 8s 5s 16 18 mph 1011.8mb 82f 80f
3:50 3.5ft 8s 5s 16
mph
1012mb 82f 80f
2:50 3.5ft 8s 5s 13 16 mph 1012.4mb 82f 81f
1:50 3.5ft 8s 5s 16 18 mph 1012.7mb 82f 81f
12:50 3.5ft 8s 6s 16 18 mph 1013.2mb 82f 81f
11:50 3ft 8s 6s 9 11 mph 1013.7mb 82f 82f
10:50 3.5ft 8s 6s 9 11 mph 1013.6mb 81f 82f
9:50 3.5ft 8s 7s 9
mph
1013mb 81f 82f
8:50 3ft 8s 6s 9
mph
1013mb 81f 81f
7:50 3.5ft 7s 6s 7 9 mph 1012.9mb 81f 81f
6:50 3ft 8s 6s 9
mph
1012.4mb 81f 80f
5:50 3ft 8s 6s 9 11 mph 1012mb 81f 81f
4:50 3.5ft 9s 6s 9 11 mph 1011.9mb 81f 81f
3:50 3ft 9s 6s 9
mph
1012.1mb 81f 81f
2:50 3ft 8s 6s 11 13 mph 1012.4mb 81f 81f
1:50 3.5ft 9s 6s 4
mph
1012.8mb 82f 81f
12:50 3.5ft 9s 7s 4
mph
1012.9mb 82f 82f
vie 07/31 11:50 3.5ft 8s 6s 7 9 mph 1013.4mb 82f 81f
10:50 3.5ft 9s 6s 9 11 mph 1013.2mb 82f 81f
9:50 3.5ft 8s 6s 7 9 mph 1012.8mb 82f 81f
8:50 3.5ft 9s 6s 9 11 mph 1011.9mb 82f 81f
7:50 3.5ft 9s 6s 7 9 mph 1011.5mb 82f 82f
6:50 3.5ft 9s 5s 7 9 mph 1011mb 82f 82f
5:50 3.5ft 9s 5s 11 13 mph 1010.7mb 82f 82f
4:50 4ft 9s 5s 13 16 mph 1011.1mb 82f 82f
3:50 4ft 8s 5s 18 20 mph 1010.9mb 82f 82f
2:50 4ft 8s 5s 18 22 mph 1011.1mb 82f 82f
1:50 3.5ft 9s 5s 18 20 mph 1011.8mb 82f 81f
12:50 3.5ft 6s 5s 16 20 mph 1012mb 82f 80f
11:50 3.5ft 8s 5s 16 18 mph 1011.9mb 82f 80f
10:50 3.5ft 9s 5s 16 20 mph 1011.6mb 81f 80f
9:50 4ft 7s 5s 13 16 mph 1011.8mb 81f 79f
8:50 4ft 9s 5s 11 13 mph 1012.1mb 81f 78f
7:50 4ft 8s 6s 16 20 mph 1012.1mb 81f 78f
6:50 4ft 6s 5s 11
mph
1011.3mb 81f 81f
5:50 4ft 6s 5s 11 13 mph 1011.1mb 81f 81f
4:50 4.5ft 6s 5s 11 13 mph 1011.1mb 81f 81f
3:50 4ft 6s 5s 13 16 mph 1011.3mb 82f 81f
2:50 4.5ft 7s 5s 13 16 mph 1011.6mb 82f 81f
1:50 4.5ft 7s 5s 16 18 mph 1011.6mb 82f 82f
12:50 4.5ft 6s 5s 16 18 mph 1012.3mb 82f 82f
jue 07/30 11:50 4.5ft 6s 5s 18 20 mph 1012.3mb 82f 82f
10:50 4.5ft 6s 5s 16 18 mph 1012.7mb 82f 82f
9:50 4.5ft 7s 5s 20 22 mph 1012.6mb 82f 82f
8:50 4ft 6s 4s 20 22 mph 1012.4mb 82f 82f
7:50 3.5ft 7s 4s 20 22 mph 1011.9mb 82f 82f
6:50 3.5ft 8s 5s 20 22 mph 1011.6mb 82f 83f
5:50 3.5ft 5s 4s 16 20 mph 1012.1mb 82f 82f
4:50 3ft 10s 4s 18 20 mph 1012mb 82f 82f
3:50 3ft 9s 5s 16 20 mph 1012.4mb 82f 82f
2:50 3ft 9s 5s 16 18 mph 1013.3mb 82f 82f
1:50 2.5ft 9s 5s 13 16 mph 1014.1mb 82f 82f
12:50 2.5ft 9s 5s 16 18 mph 1014.5mb 82f 81f
11:50 2.5ft 11s 6s 13 16 mph 1014.7mb 82f 82f
10:50 2.5ft 9s 6s 11 13 mph 1014.6mb 82f 81f
9:50 2.5ft 11s 5s 9
mph
1014.2mb 82f 81f
8:50 2.5ft 10s 5s 9
mph
1014.3mb 81f 81f
7:50 3ft 10s 5s 11 13 mph 1014.1mb 81f 81f
6:50 3ft 6s 5s 11 13 mph 1013.9mb 81f 81f
5:50 3ft 5s 5s 7 9 mph 1014mb 81f 81f
4:50 3.5ft 6s 5s 7 9 mph 1014.2mb 81f 80f
3:50 3ft 6s 5s 9
mph
1014.3mb 81f 80f
2:50 3ft 5s 5s 11
mph
1014.8mb 82f 80f
1:50 2.5ft 6s 5s 11 13 mph 1015.3mb 82f 81f
12:50 2.5ft 6s 5s 11 13 mph 1015.8mb 82f 81f
mié 07/29 11:50 2.5ft 6s 5s 13 18 mph 1015.8mb 82f 81f
10:50 2.5ft 5s 5s 13 16 mph 1015.9mb 82f 81f
9:50 2ft 10s 5s 11 13 mph 1016mb 82f 81f
8:50 2ft 6s 5s 13 16 mph 1015.2mb 82f 81f
7:50 2ft 6s 5s 11 13 mph 1015.2mb 83f 81f
6:50 2ft 11s 5s 9 11 mph 1015.2mb 83f 81f
5:50 2.5ft 8s 5s 7 9 mph 1015.8mb 83f 81f
4:50 2.5ft 6s 5s 7 9 mph 1016.1mb 83f 81f
3:50 2.5ft 6s 5s 7 9 mph 1016.4mb 83f 81f
2:50 2.5ft 9s 5s 7 9 mph 1016.4mb 83f 81f
1:50 2.5ft 7s 6s 4 7 mph 1016.8mb 82f 81f
12:50 2.5ft 6s 6s 7
mph
1016.8mb 83f 81f
11:50 2.5ft 6s 6s 4 7 mph 1017.3mb 82f 81f
10:50 2.5ft 6s 6s 4 7 mph 1017.6mb 82f 81f
9:50 2.5ft 11s 6s 4
mph
1017.3mb 81f 81f
8:50 2.5ft 10s 6s 4
mph
1016.7mb 81f 80f
7:50 2.5ft 6s 6s 7 9 mph 1016.6mb 81f 80f
6:50 2.5ft 10s 6s 7 9 mph 1016.2mb 80f 80f
5:50 2.5ft 10s 6s 7 9 mph 1015.4mb 80f 80f
4:50 2.5ft 6s 6s 4 7 mph 1015.1mb 80f 80f
3:50 2.5ft 10s 6s 7
mph
1015.4mb 81f 80f
2:50 2.5ft 6s 6s 9
mph
1015.5mb 81f 80f